Main page
METAR-TAF:

METAR-TAF

Airports :

Alice Springs Airport

Alice Springs, Australia

latitude: 23-48S, longitude: 133-53E, elevation: 545 m

Current weather observation

The report was made 47 minutes ago, at 06:30 UTC
Wind 5 kt from the Southeast, varying between East/Southeast and South/Southwest
Temperature 23°C
Humidity 36%
Pressure 1019 hPa
Visibility 10 km or more

METAR: YBAS 150630Z AUTO 14005KT 110V200 9999 // NCD 23/07 Q1019 RF00.0/000.0

Time: 16:47 (07:17 UTC)

Forecast

The report was made 2 hours and 10 minutes ago, at 05:07 UTC
Forecast valid from 15 at 06 UTC to 16 at 06 UTC
Wind 7 kt from the Southeast
Visibility 10 km or more
no clouds below 1500 m and no cumulonimbus
From 15 at 1400 UTC
Wind 5 kt from the West/Northwest
Visibility 10 km or more
no clouds below 1500 m and no cumulonimbus
From 16 at 0000 UTC
Wind 7 kt from the Southeast
Visibility 10 km or more
no clouds below 1500 m and no cumulonimbus

TAF: YBAS 150507Z 1506/1606 13007KT CAVOK FM151400 30005KT CAVOK FM160000 13007KT CAVOK

Weather observations and forecasts of more than 4000 airports (METAR and TAF reports).

The available stations are represented by yellow and red dots on the map.

Hover mouse over dot to see the name of the station.

Then click to see weather observations and forecasts.

To change the map : click on the green buttons with a black cross to zoom in, on the green button with a dash to zoom out, or on the green arrows for adjacent maps.


METAR-TAF: